createdAt,value
2019-01-31T00:01:08.434Z,9.47
2019-01-31T00:04:34.234Z,9.80
2019-01-31T00:07:45.743Z,9.43
2019-01-31T00:10:42.160Z,8.83
2019-01-31T00:13:36.264Z,9.10
2019-01-31T00:16:42.238Z,9.03
2019-01-31T00:19:24.629Z,9.63
2019-01-31T00:22:30.561Z,9.30
2019-01-31T00:25:17.427Z,9.50
2019-01-31T00:28:29.445Z,9.23
2019-01-31T00:31:27.378Z,10.37
2019-01-31T00:34:46.770Z,9.33
2019-01-31T00:37:35.598Z,8.70
2019-01-31T00:40:55.270Z,9.57
2019-01-31T00:44:05.242Z,9.17
2019-01-31T00:46:57.075Z,9.13
2019-01-31T00:50:14.451Z,9.77
2019-01-31T00:53:25.824Z,9.23
2019-01-31T00:56:35.022Z,9.27
2019-01-31T00:59:43.478Z,9.97
2019-01-31T01:02:41.790Z,9.23
2019-01-31T01:05:32.349Z,8.93
2019-01-31T01:08:33.736Z,9.33
2019-01-31T01:11:44.438Z,9.20
2019-01-31T01:15:03.091Z,8.97
2019-01-31T01:18:09.501Z,9.40
2019-01-31T01:21:17.617Z,8.90
2019-01-31T01:24:07.461Z,8.70
2019-01-31T01:27:24.184Z,8.37
2019-01-31T01:30:26.595Z,9.00
2019-01-31T01:33:32.879Z,8.40
2019-01-31T01:36:37.931Z,8.30
2019-01-31T01:39:42.790Z,8.60
2019-01-31T01:42:48.328Z,8.27
2019-01-31T01:45:38.866Z,8.30
2019-01-31T01:48:58.347Z,8.37
2019-01-31T01:51:56.578Z,8.03
2019-01-31T01:55:15.600Z,8.27
2019-01-31T01:58:28.608Z,7.83
2019-01-31T02:01:36.320Z,7.83
2019-01-31T02:04:32.182Z,7.73
2019-01-31T02:07:26.434Z,8.10
2019-01-31T02:10:36.688Z,8.17
2019-01-31T02:13:52.537Z,7.97
2019-01-31T02:17:00.825Z,7.97
2019-01-31T02:20:11.673Z,7.77
2019-01-31T02:23:18.416Z,8.40
2019-01-31T02:26:14.825Z,8.37
2019-01-31T02:29:46.560Z,8.47
2019-01-31T02:32:49.551Z,8.07
2019-01-31T02:35:32.593Z,8.37
2019-01-31T02:38:25.687Z,8.20
2019-01-31T02:41:34.567Z,8.83
2019-01-31T02:44:45.137Z,7.80
2019-01-31T02:48:00.701Z,8.33
2019-01-31T02:50:55.892Z,8.10
2019-01-31T02:53:47.833Z,8.17
2019-01-31T02:56:48.084Z,7.87
2019-01-31T02:59:58.515Z,7.97
2019-01-31T03:03:14.653Z,8.00
2019-01-31T03:06:12.319Z,8.03
2019-01-31T03:09:12.265Z,7.90
2019-01-31T03:12:09.612Z,7.83
2019-01-31T03:15:13.552Z,8.10
2019-01-31T03:18:25.113Z,8.17
2019-01-31T03:21:34.714Z,7.87
2019-01-31T03:24:29.479Z,8.00
2019-01-31T03:27:44.459Z,7.40
2019-01-31T03:30:56.810Z,7.27
2019-01-31T03:33:33.788Z,7.43
2019-01-31T03:36:23.762Z,7.67
2019-01-31T03:39:18.722Z,8.30
2019-01-31T03:41:54.355Z,8.07
2019-01-31T03:45:06.211Z,8.03
2019-01-31T03:48:13.170Z,7.67
2019-01-31T03:51:18.284Z,8.07
2019-01-31T03:54:38.178Z,8.50
2019-01-31T03:57:52.482Z,8.07
2019-01-31T04:00:51.467Z,8.30
2019-01-31T04:03:51.442Z,8.33
2019-01-31T04:06:27.146Z,8.90
2019-01-31T04:08:56.752Z,7.67
2019-01-31T04:11:26.293Z,7.87
2019-01-31T04:13:55.893Z,8.20
2019-01-31T04:16:25.513Z,7.77
2019-01-31T04:18:55.265Z,8.03
2019-01-31T04:21:25.001Z,8.07
2019-01-31T04:23:56.890Z,8.63
2019-01-31T04:26:28.518Z,7.60
2019-01-31T04:28:58.098Z,8.17
2019-01-31T04:31:28.038Z,7.83
2019-01-31T04:33:57.728Z,7.53
2019-01-31T04:36:28.423Z,8.27
2019-01-31T04:38:57.982Z,8.90
2019-01-31T04:41:27.591Z,8.57
2019-01-31T04:43:57.618Z,8.03
2019-01-31T04:46:27.164Z,8.33
2019-01-31T04:48:56.882Z,8.70
2019-01-31T04:51:26.953Z,8.60
2019-01-31T04:53:56.565Z,8.43
2019-01-31T04:56:26.233Z,8.30
2019-01-31T04:58:55.854Z,8.67
2019-01-31T05:01:26.646Z,9.03
2019-01-31T05:03:56.919Z,8.93
2019-01-31T05:06:26.622Z,8.60
2019-01-31T05:08:56.281Z,9.10
2019-01-31T05:11:25.928Z,7.93
2019-01-31T05:13:55.981Z,8.50
2019-01-31T05:16:25.806Z,8.90
2019-01-31T05:18:55.521Z,8.90
2019-01-31T05:21:25.721Z,8.77
2019-01-31T05:23:55.400Z,9.37
2019-01-31T05:26:25.061Z,8.03
2019-01-31T05:28:54.657Z,9.27
2019-01-31T05:31:24.329Z,9.00
2019-01-31T05:33:54.302Z,9.33
2019-01-31T05:36:23.927Z,9.00
2019-01-31T05:38:53.698Z,9.40
2019-01-31T05:41:23.319Z,9.37
2019-01-31T05:43:52.988Z,8.87
2019-01-31T05:46:22.632Z,9.43
2019-01-31T05:48:53.008Z,9.97
2019-01-31T05:51:22.757Z,9.27
2019-01-31T05:53:52.482Z,9.93
2019-01-31T05:56:22.392Z,9.80
2019-01-31T05:58:52.294Z,9.60
2019-01-31T06:01:21.927Z,10.43
2019-01-31T06:03:51.859Z,9.63
2019-01-31T06:06:21.577Z,9.60
2019-01-31T06:08:51.221Z,9.17
2019-01-31T06:11:21.132Z,9.77
2019-01-31T06:13:52.203Z,9.60
2019-01-31T06:16:21.927Z,9.00
2019-01-31T06:18:51.637Z,9.07
2019-01-31T06:21:21.759Z,9.20
2019-01-31T06:23:51.444Z,9.40
2019-01-31T06:26:21.468Z,9.13
2019-01-31T06:28:51.519Z,8.93
2019-01-31T06:31:21.634Z,9.10
2019-01-31T06:33:51.763Z,8.67
2019-01-31T06:36:22.061Z,9.23
2019-01-31T06:38:52.393Z,9.27
2019-01-31T06:41:22.064Z,10.17
2019-01-31T06:43:51.985Z,9.13
2019-01-31T06:46:22.246Z,8.53
2019-01-31T06:48:52.311Z,9.10
2019-01-31T06:51:22.095Z,9.07
2019-01-31T06:53:51.991Z,8.50
2019-01-31T06:56:21.540Z,8.60
2019-01-31T06:58:51.191Z,8.80
2019-01-31T07:01:21.026Z,9.40
2019-01-31T07:03:50.982Z,9.57
2019-01-31T07:06:21.154Z,9.37
2019-01-31T07:08:51.030Z,9.23
2019-01-31T07:11:29.795Z,8.73
2019-01-31T07:13:52.703Z,8.90
2019-01-31T07:16:22.810Z,9.17
2019-01-31T07:18:53.072Z,8.87
2019-01-31T07:21:23.060Z,9.07
2019-01-31T07:23:53.012Z,9.10
2019-01-31T07:26:22.596Z,9.67
2019-01-31T07:28:52.339Z,8.07
2019-01-31T07:31:22.203Z,9.20
2019-01-31T07:33:52.299Z,9.27
2019-01-31T07:36:22.221Z,8.73
2019-01-31T07:38:52.316Z,8.93
2019-01-31T07:41:22.407Z,8.37
2019-01-31T07:43:52.300Z,8.63
2019-01-31T07:46:22.359Z,8.93
2019-01-31T07:48:52.229Z,7.80
2019-01-31T07:51:22.151Z,9.57
2019-01-31T07:53:52.197Z,8.43
2019-01-31T07:56:22.040Z,8.30
2019-01-31T07:58:51.892Z,8.60
2019-01-31T08:01:22.009Z,8.80
2019-01-31T08:04:02.244Z,8.37
2019-01-31T08:06:23.934Z,8.53
2019-01-31T08:08:54.042Z,8.40
2019-01-31T08:11:24.039Z,7.93
2019-01-31T08:13:54.173Z,8.73
2019-01-31T08:16:24.169Z,9.10
2019-01-31T08:18:54.329Z,8.50
2019-01-31T08:21:24.317Z,8.47
2019-01-31T08:23:54.545Z,8.43
2019-01-31T08:26:24.774Z,8.83
2019-01-31T08:28:54.945Z,8.20
2019-01-31T08:31:24.680Z,8.90
2019-01-31T08:33:54.800Z,8.87
2019-01-31T08:36:25.047Z,8.23
2019-01-31T08:38:55.157Z,8.60
2019-01-31T08:41:25.116Z,8.50
2019-01-31T08:43:56.991Z,8.50
2019-01-31T08:46:27.159Z,8.07
2019-01-31T08:48:57.150Z,8.50
2019-01-31T08:51:27.255Z,8.20
2019-01-31T08:53:57.642Z,8.43
2019-01-31T08:56:27.434Z,8.40
2019-01-31T08:58:57.191Z,8.33
2019-01-31T09:01:27.321Z,9.03
2019-01-31T09:03:57.364Z,8.27
2019-01-31T09:06:27.331Z,9.60
2019-01-31T09:08:57.104Z,8.70
2019-01-31T09:11:26.773Z,8.57
2019-01-31T09:13:56.594Z,8.97
2019-01-31T09:16:26.478Z,8.83
2019-01-31T09:18:56.300Z,8.63
2019-01-31T09:21:31.276Z,8.77
2019-01-31T09:24:44.140Z,8.27
2019-01-31T09:28:08.816Z,8.23
2019-01-31T09:31:04.977Z,8.70
2019-01-31T09:33:46.429Z,9.07
2019-01-31T09:36:38.781Z,8.87
2019-01-31T09:40:00.703Z,8.43
2019-01-31T09:43:11.438Z,8.93
2019-01-31T09:46:26.880Z,9.27
2019-01-31T09:49:31.730Z,9.43
2019-01-31T09:52:48.033Z,8.83
2019-01-31T09:56:08.142Z,9.03
2019-01-31T09:59:14.547Z,8.60
2019-01-31T10:02:10.815Z,9.00
2019-01-31T10:05:06.397Z,9.57
2019-01-31T10:08:15.763Z,9.37
2019-01-31T10:11:24.027Z,9.00
2019-01-31T10:14:22.550Z,9.43
2019-01-31T10:17:31.221Z,9.00
2019-01-31T10:20:28.997Z,9.70
2019-01-31T10:23:24.941Z,9.10
2019-01-31T10:26:44.856Z,9.53
2019-01-31T10:29:30.771Z,9.20
2019-01-31T10:32:22.560Z,9.57
2019-01-31T10:35:20.356Z,9.83
2019-01-31T10:38:25.751Z,9.73
2019-01-31T10:41:18.590Z,9.93
2019-01-31T10:44:47.450Z,9.67
2019-01-31T10:48:02.973Z,10.03
2019-01-31T10:50:51.954Z,10.40
2019-01-31T10:54:09.131Z,10.33
2019-01-31T10:57:24.462Z,9.57
2019-01-31T11:00:24.329Z,10.80
2019-01-31T11:03:29.154Z,14.17
2019-01-31T11:06:52.341Z,17.60
2019-01-31T11:10:30.664Z,10.73
2019-01-31T11:13:43.510Z,9.27
2019-01-31T11:17:02.907Z,8.70
2019-01-31T11:20:01.325Z,9.50
2019-01-31T11:22:56.985Z,8.90
2019-01-31T11:26:12.588Z,8.93
2019-01-31T11:29:21.853Z,7.87
2019-01-31T11:32:38.436Z,8.23
2019-01-31T11:36:03.141Z,8.13
2019-01-31T11:39:26.504Z,8.60
2019-01-31T11:43:11.295Z,8.33
2019-01-31T11:46:01.839Z,8.80
2019-01-31T11:48:51.970Z,8.30
2019-01-31T11:52:11.810Z,7.87
2019-01-31T11:54:55.585Z,7.80
2019-01-31T11:58:20.704Z,7.77
2019-01-31T12:00:53.047Z,8.67
2019-01-31T12:03:22.706Z,7.67
2019-01-31T12:05:52.747Z,8.27
2019-01-31T12:08:22.869Z,8.70
2019-01-31T12:10:53.268Z,8.33
2019-01-31T12:13:23.897Z,8.40
2019-01-31T12:15:53.984Z,8.43
2019-01-31T12:18:23.773Z,7.60
2019-01-31T12:20:53.890Z,7.67
2019-01-31T12:23:24.163Z,9.07
2019-01-31T12:25:54.161Z,7.80
2019-01-31T12:28:24.422Z,8.03
2019-01-31T12:30:54.332Z,8.70
2019-01-31T12:33:24.570Z,8.53
2019-01-31T12:35:54.499Z,8.83
2019-01-31T12:38:24.329Z,8.70
2019-01-31T12:40:54.752Z,8.23
2019-01-31T12:43:34.773Z,8.00
2019-01-31T12:45:56.085Z,7.53
2019-01-31T12:48:26.034Z,7.67
2019-01-31T12:50:56.170Z,8.03
2019-01-31T12:53:27.228Z,8.27
2019-01-31T12:55:57.298Z,7.60
2019-01-31T12:58:33.683Z,8.13
2019-01-31T13:00:58.702Z,7.93
2019-01-31T13:03:28.858Z,8.60
2019-01-31T13:05:58.767Z,8.90
2019-01-31T13:08:28.553Z,8.57
2019-01-31T13:10:58.651Z,7.63
2019-01-31T13:13:31.246Z,8.63
2019-01-31T13:16:01.883Z,8.13
2019-01-31T13:18:31.883Z,7.97
2019-01-31T13:21:02.025Z,7.80
2019-01-31T13:23:31.968Z,7.57
2019-01-31T13:26:01.889Z,7.93
2019-01-31T13:28:32.104Z,6.87
2019-01-31T13:31:02.003Z,7.67
2019-01-31T13:33:31.924Z,7.10
2019-01-31T13:36:01.711Z,7.20
2019-01-31T13:38:31.725Z,7.40
2019-01-31T13:41:01.563Z,6.67
2019-01-31T13:43:31.936Z,7.03
2019-01-31T13:46:01.849Z,6.80
2019-01-31T13:48:32.001Z,6.70
2019-01-31T13:51:01.920Z,6.90
2019-01-31T13:53:31.853Z,6.90
2019-01-31T13:56:01.661Z,6.87
2019-01-31T13:58:31.829Z,6.67
2019-01-31T14:01:01.580Z,7.03
2019-01-31T14:03:31.431Z,6.90
2019-01-31T14:06:01.619Z,7.27
2019-01-31T14:08:31.546Z,6.77
2019-01-31T14:11:01.670Z,6.50
2019-01-31T14:13:31.584Z,6.70
2019-01-31T14:16:01.801Z,10.30
2019-01-31T14:18:31.778Z,8.00
2019-01-31T14:21:02.022Z,6.23
2019-01-31T14:23:32.108Z,5.80
2019-01-31T14:26:02.185Z,5.57
2019-01-31T14:28:32.235Z,6.63
2019-01-31T14:31:02.294Z,5.67
2019-01-31T14:33:34.012Z,5.83
2019-01-31T14:36:04.849Z,5.50
2019-01-31T14:38:35.143Z,5.23
2019-01-31T14:41:05.346Z,5.23
2019-01-31T14:43:35.532Z,5.37
2019-01-31T14:46:05.874Z,5.27
2019-01-31T14:48:35.715Z,5.70
2019-01-31T14:51:05.682Z,5.57
2019-01-31T14:53:35.770Z,5.77
2019-01-31T14:56:05.992Z,5.60
2019-01-31T14:58:36.104Z,5.03
2019-01-31T15:01:06.122Z,4.90
2019-01-31T15:03:35.826Z,4.83
2019-01-31T15:06:05.547Z,5.47
2019-01-31T15:08:35.180Z,4.80
2019-01-31T15:11:05.040Z,4.40
2019-01-31T15:13:35.069Z,3.80
2019-01-31T15:16:05.137Z,3.87
2019-01-31T15:18:34.791Z,4.40
2019-01-31T15:21:04.354Z,4.50
2019-01-31T15:23:34.119Z,3.60
2019-01-31T15:26:04.379Z,4.00
2019-01-31T15:28:33.960Z,3.80
2019-01-31T15:31:03.854Z,3.97
2019-01-31T15:33:33.465Z,5.43
2019-01-31T15:36:03.278Z,5.40
2019-01-31T15:38:33.290Z,4.23
2019-01-31T15:41:02.915Z,4.07
2019-01-31T15:43:32.567Z,3.73
2019-01-31T15:46:02.119Z,3.70
2019-01-31T15:48:32.024Z,3.63
2019-01-31T15:51:02.116Z,3.30
2019-01-31T15:53:32.568Z,4.17
2019-01-31T15:56:02.612Z,3.50
2019-01-31T15:58:32.836Z,4.20
2019-01-31T16:01:02.706Z,3.40
2019-01-31T16:03:32.201Z,3.40
2019-01-31T16:06:02.138Z,3.23
2019-01-31T16:08:32.081Z,4.30
2019-01-31T16:11:01.773Z,3.90
2019-01-31T16:13:31.590Z,3.63
2019-01-31T16:16:01.264Z,3.57
2019-01-31T16:18:31.447Z,3.63
2019-01-31T16:21:04.120Z,3.30
2019-01-31T16:23:33.688Z,3.50
2019-01-31T16:26:03.305Z,3.70
2019-01-31T16:28:33.757Z,3.63
2019-01-31T16:31:04.395Z,4.07
2019-01-31T16:33:34.293Z,4.00
2019-01-31T16:36:04.451Z,4.10
2019-01-31T16:38:34.624Z,3.73
2019-01-31T16:41:04.956Z,3.83
2019-01-31T16:43:37.157Z,3.77
2019-01-31T16:46:06.776Z,3.80
2019-01-31T16:48:36.852Z,4.37
2019-01-31T16:51:07.789Z,4.10
2019-01-31T16:53:37.437Z,4.20
2019-01-31T16:56:11.482Z,4.00
2019-01-31T16:58:41.458Z,3.80
2019-01-31T17:01:11.777Z,4.20
2019-01-31T17:03:42.094Z,4.07
2019-01-31T17:06:15.883Z,4.10
2019-01-31T17:08:45.541Z,4.23
2019-01-31T17:11:16.450Z,4.00
2019-01-31T17:13:46.112Z,4.10
2019-01-31T17:16:15.992Z,4.00
2019-01-31T17:18:45.535Z,4.40
2019-01-31T17:21:15.680Z,4.00
2019-01-31T17:23:45.276Z,4.20
2019-01-31T17:26:14.888Z,4.20
2019-01-31T17:28:44.569Z,4.27
2019-01-31T17:31:14.155Z,3.90
2019-01-31T17:33:44.080Z,4.33
2019-01-31T17:36:14.222Z,4.27
2019-01-31T17:38:44.310Z,4.37
2019-01-31T17:41:14.705Z,4.57
2019-01-31T17:43:48.131Z,4.33
2019-01-31T17:46:16.662Z,4.20
2019-01-31T17:48:46.301Z,4.20
2019-01-31T17:51:17.273Z,4.27
2019-01-31T17:53:47.391Z,3.80
2019-01-31T17:56:16.970Z,4.70
2019-01-31T17:58:46.935Z,4.47
2019-01-31T18:01:16.864Z,4.80
2019-01-31T18:03:46.563Z,4.70
2019-01-31T18:06:18.829Z,5.10
2019-01-31T18:08:47.554Z,4.60
2019-01-31T18:11:17.250Z,4.47
2019-01-31T18:13:48.522Z,4.70
2019-01-31T18:16:18.309Z,4.37
2019-01-31T18:18:48.408Z,4.23
2019-01-31T18:21:18.155Z,4.63
2019-01-31T18:23:51.109Z,4.83
2019-01-31T18:26:21.266Z,5.10
2019-01-31T18:28:54.167Z,4.33
2019-01-31T18:31:24.279Z,4.80
2019-01-31T18:33:54.222Z,4.40
2019-01-31T18:36:24.383Z,4.40
2019-01-31T18:38:59.164Z,4.77
2019-01-31T18:41:30.011Z,4.67
2019-01-31T18:44:00.785Z,5.30
2019-01-31T18:46:31.754Z,5.37
2019-01-31T18:49:03.809Z,5.33
2019-01-31T18:51:33.895Z,4.20
2019-01-31T18:54:04.364Z,4.70
2019-01-31T18:56:34.394Z,4.63
2019-01-31T18:59:04.357Z,5.37
2019-01-31T19:01:33.966Z,4.60
2019-01-31T19:04:11.271Z,4.50
2019-01-31T19:06:44.195Z,4.80
2019-01-31T19:09:14.612Z,4.93
2019-01-31T19:11:44.830Z,4.80
2019-01-31T19:14:14.948Z,5.60
2019-01-31T19:16:50.533Z,5.57
2019-01-31T19:19:25.595Z,5.17
2019-01-31T19:22:01.579Z,5.30
2019-01-31T19:24:35.789Z,5.50
2019-01-31T19:27:32.333Z,4.30
2019-01-31T19:30:08.396Z,4.13
2019-01-31T19:32:38.708Z,4.20
2019-01-31T19:35:12.086Z,4.87
2019-01-31T19:37:46.302Z,4.60
2019-01-31T19:40:19.448Z,4.33
2019-01-31T19:42:54.015Z,4.37
2019-01-31T19:45:48.986Z,4.57
2019-01-31T19:48:20.767Z,4.53
2019-01-31T19:50:50.973Z,4.10
2019-01-31T19:53:23.784Z,4.53
2019-01-31T19:55:55.911Z,4.00
2019-01-31T19:58:29.213Z,4.57
2019-01-31T20:01:09.395Z,4.80
2019-01-31T20:03:43.017Z,4.67
2019-01-31T20:06:13.653Z,5.23
2019-01-31T20:08:50.331Z,4.40
2019-01-31T20:11:19.756Z,4.93
2019-01-31T20:13:50.141Z,5.50
2019-01-31T20:16:28.961Z,5.53
2019-01-31T20:18:59.371Z,4.90
2019-01-31T20:21:35.314Z,4.90
2019-01-31T20:24:07.670Z,5.10
2019-01-31T20:26:43.473Z,4.47
2019-01-31T20:29:16.030Z,4.57
2019-01-31T20:32:06.146Z,4.13
2019-01-31T20:34:39.285Z,4.20
2019-01-31T20:37:10.832Z,4.60
2019-01-31T20:39:47.993Z,4.20
2019-01-31T20:42:28.342Z,4.30
2019-01-31T20:45:03.780Z,4.20
2019-01-31T20:47:36.591Z,4.20
2019-01-31T20:50:13.142Z,4.27
2019-01-31T20:53:01.094Z,3.97
2019-01-31T20:55:37.827Z,3.63
2019-01-31T20:58:08.281Z,3.67
2019-01-31T21:00:45.280Z,4.20
2019-01-31T21:03:20.519Z,4.00
2019-01-31T21:05:50.890Z,3.90
2019-01-31T21:08:21.710Z,3.37
2019-01-31T21:10:51.848Z,3.67
2019-01-31T21:13:22.409Z,3.20
2019-01-31T21:15:53.265Z,2.97
2019-01-31T21:18:23.412Z,3.03
2019-01-31T21:20:53.453Z,3.20
2019-01-31T21:23:23.098Z,2.77
2019-01-31T21:25:52.786Z,2.80
2019-01-31T21:28:22.419Z,2.93
2019-01-31T21:30:52.341Z,2.90
2019-01-31T21:33:22.065Z,2.70
2019-01-31T21:35:51.865Z,2.67
2019-01-31T21:38:21.488Z,2.80
2019-01-31T21:40:51.488Z,2.80
2019-01-31T21:43:21.760Z,2.73
2019-01-31T21:45:51.618Z,2.43
2019-01-31T21:48:21.219Z,2.93
2019-01-31T21:50:51.119Z,2.87
2019-01-31T21:53:20.882Z,2.70
2019-01-31T21:55:50.875Z,3.27
2019-01-31T21:58:20.455Z,2.90
2019-01-31T22:00:50.106Z,2.77
2019-01-31T22:03:19.774Z,3.33
2019-01-31T22:05:49.407Z,3.23
2019-01-31T22:08:19.020Z,2.70
2019-01-31T22:10:48.627Z,3.03
2019-01-31T22:13:18.590Z,2.93
2019-01-31T22:15:48.257Z,3.50
2019-01-31T22:18:18.367Z,3.20
2019-01-31T22:20:47.986Z,3.17
2019-01-31T22:23:18.343Z,2.57
2019-01-31T22:25:47.978Z,2.80
2019-01-31T22:28:18.229Z,2.93
2019-01-31T22:30:47.875Z,2.77
2019-01-31T22:33:17.525Z,3.03
2019-01-31T22:35:47.218Z,2.40
2019-01-31T22:38:16.841Z,2.50
2019-01-31T22:40:46.795Z,2.40
2019-01-31T22:43:16.503Z,2.53
2019-01-31T22:45:46.860Z,2.20
2019-01-31T22:48:16.627Z,2.47
2019-01-31T22:50:46.309Z,2.60
2019-01-31T22:53:16.387Z,2.40
2019-01-31T22:55:46.519Z,2.90
2019-01-31T22:58:16.170Z,2.87
2019-01-31T23:01:31.226Z,3.10
2019-01-31T23:04:00.944Z,2.80
2019-01-31T23:06:30.621Z,3.60
2019-01-31T23:09:00.847Z,3.20
2019-01-31T23:11:30.538Z,2.80
2019-01-31T23:14:00.157Z,2.90
2019-01-31T23:16:29.803Z,3.00
2019-01-31T23:18:59.779Z,2.83
2019-01-31T23:21:29.422Z,2.97
2019-01-31T23:23:59.038Z,3.40
2019-01-31T23:26:28.627Z,3.43
2019-01-31T23:28:58.260Z,3.20
2019-01-31T23:31:28.044Z,3.63
2019-01-31T23:33:57.632Z,3.23
2019-01-31T23:36:27.255Z,3.13
2019-01-31T23:38:56.876Z,3.10
2019-01-31T23:41:26.524Z,2.90
2019-01-31T23:43:56.283Z,3.30
2019-01-31T23:46:25.866Z,3.17
2019-01-31T23:48:55.960Z,3.07
2019-01-31T23:51:25.548Z,2.90
2019-01-31T23:53:55.274Z,3.27
2019-01-31T23:56:25.038Z,2.90
2019-01-31T23:58:54.669Z,3.00
